Terminal Aerodrome Forecast
Issued by NWS

Home | Current Version | Previous Version | Text Only | Print | Product List | Glossary On
Versions: 1 2 3 4 5 6 7 8 9 10 11 12 13 14 15 16 17 18 19 20 21 22 23 24 25
000
FTUS46 KSGX 230500 CCA
TAFCRQ
TAF COR
KCRQ 230540Z 2306/2406 VRB03KT 4SM BR SKC
      TEMPO 2310/2313 1SM BR BKN003
     FM231400 VRB04KT P6SM SKC=

USA.gov is the U.S. government's official web portal to all federal, state and local government web resources and services.